aviador You're here:

CYDL Decoded Metar

DEASE LAKE in BC, CANADA
Report Time2018-02-17 23:00:00
UTC Time2018-02-17 23:41:21
Flight Rules vfr VFR
Wind340° at 05 kt
W.Decomp.*RWY 02: 2.2 kt HW 4.5 kt LCW
W.Rank340° ranks 24
Current wind is below 340° avg. (5.7)
Visibility9999 m
Phenomena:N/A
Clouds:Few 055 Hf
Expected CloudBase > 4,000 ft AGL from Temp-Dew spread
CeilingNone
Temp-9°C (ISA -19)
Dew Point-19°C (45% RH)
AAT-14.3°C
QNH1024 hPa
Density Alt16 ft
Elevation2,677 ft
Report Wrong Elevation
Raw Report
METAR CYDL 172300Z AUTO 34005KT 290V050 9SM FEW055 M09/M19 A3023 RMK
SLP286=

Extra information for CYDL:More info

Metar Taf Metar & Taf Last 4 Metars F.Rules Stats Wind Profile Meteogram Temp Stats Airport Information Weather charts Add Link Nearby VenuesMetar ALERT Operation Metar Decoded Social comments